In Rescue
 
Open Full Screen Window  High Contrast Mode
Wind Gusting 18 knots
12
March 29, 2020 5:02 AM CDT
Weather Information
Wind Direction
  350 °
Wind Speed
  12 kt (14 mph)
Wind Gust
  18 kt (21 mph)
Altimeter
29.61 in
Visibility
10 SM
Temperature
03° C
37° F
Dewpoint
-03° C
27° F
Humidity
65%
1hr Rain Fall
00.00 in.
24hr Rain Fall
00.00 in.
Sky Condition
Overcast @ 6,000 ft
Scattered @ 3,300 ft
VFR

METAR KSAZ 291002Z AUTO 35012G18KT 10SM SCT033 OVC060 03/M03 A2961 RMK AO2

FAA Disclaimer: The data displayed is for advisory purposes only and is not to be used for flight planning or operations.